Circle, AK (99733)

6:24 PM AKDT on October 25, 2014 (GMT -0800)
Fort Yukon | Change Station
CLOSE
Current Station
Airport
Location: Fort Yukon,
Elevation: 430 ft
Nearby Weather Stations

Elev 430 ft 66.57 °N, 145.27 °W | Updated 8 minutes ago

Overcast
Overcast
21 °F
Feels Like 16 °F
N
4
Wind Variable Wind from NE

Today
High -- | Low -- °F
--% Chance of Precip.
Yesterday
High -- | Low -- °F
Precip. -- in
9:06 AM 5:32 PM
Waxing Crescent, 5% visible
Pressure 29.91 in
Visibility 10.0 miles
Clouds Overcast 1900 ft
Windchill 16 °F
Dew Point 19 °F
Humidity 93%
Rainfall 0.00 in
Snow Depth Not available.
UV 0 out of 12
Pollen Not available.
Air Quality Not available.
Flu Activity Local Activity
METAR PFYU 260216Z 04003KT 10SM OVC019 M06/M07 A2991 RMK AO1

More Conditions Fewer Conditions

Pressure 29.91 in
Visibility 10.0 miles
Clouds Overcast 1900 ft
Windchill 16 °F
Dew Point 19 °F
Humidity 93%
Rainfall 0.00 in
Snow Depth Not available.
UV 0 out of 12
Pollen Not available.
Air Quality Not available.
Flu Activity Local Activity
METAR PFYU 260216Z 04003KT 10SM OVC019 M06/M07 A2991 RMK AO1

More Conditions Fewer Conditions

10-Day Weather Forecast

Almanac

Astronomy

Oct. 25, 2014 Rise Set
Actual Time 9:06 AM AKDT 5:32 PM AKDT
Civil Twilight 8:11 AM AKDT 6:27 PM AKDT
Nautical Twilight 7:11 AM AKDT 7:27 PM AKDT
Astronomical Twilight 6:12 AM AKDT 8:25 PM AKDT
Moon 11:34 AM AKDT (10/25) 6:19 PM AKDT (10/25)
Length of Visible Light 10h 16m
Length of Day
8h 26m
Tomorrow will be 7m 8s shorter.
Waxing Crescent, 5% of the Moon is Illuminated
Today
Waxing Crescent
Oct 30
First Quarter
Nov 6
Full
Nov 14
Last Quarter
Nov 22
New

Today's Extremes

State Highs State Lows

Community

WunderPhotos

Upload Photos

1,765,084 photos uploaded!

Nearby

Snow Depth

Station Depth Elevation
Eagle Summit 77 in 3650 ft
Upper Chena 11 in 2850 ft
Fort Yukon 4 in 430 ft
Mt. Ryan 8 in 2800 ft
Monument Creek 7 in 1850 ft

Earthquake Activity

City Distance Mag. Time & Date
No recent earthquake activity has been reported nearby.
Minimum magnitude displayed is 2.5.

Coastal Water Temperatures

Place Temperature
No Stations Reporting

Nearby Weather Stations